Time;durP1;ratioP1;P1;durP2;ratioP2;P2;SDS_P1;SDS_P2;PMS_P1;PMS_P2;Temp;Humidity;BMP_temperature;BMP_pressure;BME280_temperature;BME280_humidity;BME280_pressure;Samples;Min_cycle;Max_cycle;Signal;HPM_P1;HPM_P2
2022/09/02 00:02:16;;;;;;;0.03;0.03;;;;;;;8.02;70.49;99185.28;6278183;22;20542;-69
2022/09/02 00:04:42;;;;;;;0.10;0.10;;;;;;;8.05;69.94;99192.94;6241477;22;20092;-70
2022/09/02 00:07:08;;;;;;;0.10;0.10;;;;;;;7.97;70.39;99197.00;6277519;22;20031;-69
2022/09/02 00:09:36;;;;;;;0.10;0.10;;;;;;;7.97;70.99;99197.00;6275322;22;20224;-69
2022/09/02 00:12:04;;;;;;;0.10;0.10;;;;;;;7.93;71.18;99198.63;6237985;22;20023;-69
2022/09/02 00:14:33;;;;;;;0.10;0.10;;;;;;;7.89;71.32;99197.53;6275856;22;20027;-69
2022/09/02 00:16:59;;;;;;;0.20;0.10;;;;;;;7.91;71.17;99204.34;6266424;22;20024;-70
2022/09/02 00:19:28;;;;;;;0.22;0.10;;;;;;;7.82;70.76;99205.16;6268223;22;20015;-73
2022/09/02 00:21:59;;;;;;;0.10;0.10;;;;;;;7.76;69.72;99196.19;6270285;22;20031;-72
2022/09/02 00:24:26;;;;;;;0.10;0.10;;;;;;;7.71;70.56;99204.31;6239467;22;20030;-73
2022/09/02 00:26:52;;;;;;;0.10;0.10;;;;;;;7.74;71.35;99211.97;6241092;22;20073;-72
2022/09/02 00:29:18;;;;;;;0.10;0.10;;;;;;;7.79;70.69;99210.03;6281144;22;20270;-73
2022/09/02 00:31:45;;;;;;;0.10;0.10;;;;;;;7.83;70.01;99198.63;6277461;22;20089;-73
2022/09/02 00:34:12;;;;;;;0.10;0.10;;;;;;;7.78;70.17;99208.41;6263569;22;20069;-73
2022/09/02 00:36:39;;;;;;;0.10;0.10;;;;;;;7.77;70.52;99209.50;6228399;22;20016;-72
2022/09/02 00:39:07;;;;;;;0.10;0.10;;;;;;;7.78;70.08;99192.06;6239346;22;20364;-72
2022/09/02 00:41:34;;;;;;;0.00;0.00;;;;;;;7.80;70.19;99200.81;6276062;22;20023;-73
2022/09/02 00:44:03;;;;;;;0.15;0.10;;;;;;;7.85;69.37;99199.97;6220785;22;20043;-72
2022/09/02 00:46:30;;;;;;;0.10;0.10;;;;;;;7.87;69.88;99195.06;6265720;22;20368;-72
2022/09/02 00:48:58;;;;;;;;;;;;;;;7.87;70.05;99197.78;6267962;22;20023;-73
2022/09/02 00:51:27;;;;;;;0.10;0.10;;;;;;;7.92;70.30;99202.44;6266957;22;20117;-73
2022/09/02 00:53:54;;;;;;;0.10;0.10;;;;;;;7.98;70.11;99195.09;6275355;22;20026;-73
2022/09/02 00:56:23;;;;;;;0.10;0.10;;;;;;;7.98;69.72;99214.13;6276181;22;20745;-73
2022/09/02 00:58:51;;;;;;;0.10;0.10;;;;;;;7.98;69.92;99205.97;6212223;22;20026;-73
2022/09/02 01:01:17;;;;;;;0.47;0.10;;;;;;;7.95;69.92;99196.44;6266987;22;20448;-73
2022/09/02 01:03:43;;;;;;;0.00;0.00;;;;;;;7.90;68.66;99199.16;6273641;22;20049;-74
2022/09/02 01:06:14;;;;;;;0.10;0.10;;;;;;;7.83;68.72;99199.44;6266546;22;20051;-72
2022/09/02 01:08:45;;;;;;;0.00;0.00;;;;;;;7.85;69.36;99210.06;6241931;22;20020;-72
2022/09/02 01:11:12;;;;;;;0.20;0.20;;;;;;;7.86;68.34;99201.59;6218108;22;20463;-72
2022/09/02 01:13:40;;;;;;;0.38;0.20;;;;;;;7.83;69.13;99204.06;6267323;22;20034;-72
2022/09/02 01:16:13;;;;;;;0.10;0.10;;;;;;;7.89;69.69;99201.09;6216381;22;20046;-72
2022/09/02 01:18:42;;;;;;;0.10;0.10;;;;;;;7.90;69.63;99216.34;6275411;22;20019;-72
2022/09/02 01:21:09;;;;;;;0.10;0.10;;;;;;;7.88;70.45;99182.28;6216885;22;20025;-72
2022/09/02 01:23:37;;;;;;;0.00;0.00;;;;;;;7.65;71.04;99182.56;6274475;22;20073;-73
2022/09/02 01:26:06;;;;;;;0.20;0.20;;;;;;;7.63;72.38;99194.78;6214553;22;20375;-72
2022/09/02 01:28:32;;;;;;;0.10;0.10;;;;;;;7.50;73.27;99205.13;6248266;22;20019;-73
2022/09/02 01:30:59;;;;;;;0.10;0.10;;;;;;;7.42;74.50;99194.75;6238527;22;20019;-73
2022/09/02 01:33:26;;;;;;;0.10;0.10;;;;;;;7.32;75.85;99216.47;6213319;22;20516;-73
2022/09/02 01:35:53;;;;;;;0.20;0.10;;;;;;;7.24;77.23;99209.66;6274943;22;20455;-71
2022/09/02 01:38:24;;;;;;;0.00;0.00;;;;;;;7.20;77.01;99205.84;6250702;22;20028;-72
2022/09/02 01:40:52;;;;;;;0.10;0.10;;;;;;;7.19;76.93;99215.09;6215474;22;20028;-71
2022/09/02 01:43:21;;;;;;;0.10;0.10;;;;;;;7.22;76.72;99215.38;6249837;22;20251;-72
2022/09/02 01:45:50;;;;;;;0.10;0.10;;;;;;;7.19;76.53;99196.88;6242371;22;20028;-73
2022/09/02 01:48:17;;;;;;;0.10;0.10;;;;;;;7.32;76.47;99216.47;6247044;22;20081;-72
2022/09/02 01:50:46;;;;;;;0.00;0.00;;;;;;;7.36;76.46;99217.59;6278140;22;20110;-72
2022/09/02 01:53:13;;;;;;;0.10;0.10;;;;;;;7.39;76.32;99219.78;6248537;22;20301;-73
2022/09/02 01:55:39;;;;;;;0.10;0.10;;;;;;;7.40;75.70;99221.41;6249733;22;20023;-72
2022/09/02 01:58:06;;;;;;;0.10;0.10;;;;;;;7.47;75.59;99227.41;6212971;22;20026;-72
2022/09/02 02:00:32;;;;;;;0.10;0.10;;;;;;;7.47;74.59;99227.41;6250126;22;20451;-72
2022/09/02 02:02:59;;;;;;;0.05;0.05;;;;;;;7.49;75.06;99235.31;6215651;22;20024;-74
2022/09/02 02:05:25;;;;;;;0.10;0.10;;;;;;;7.47;74.01;99226.59;6278362;22;20542;-73
2022/09/02 02:07:52;;;;;;;0.10;0.10;;;;;;;7.47;73.52;99235.56;6249816;22;20020;-73
2022/09/02 02:10:20;;;;;;;0.10;0.10;;;;;;;7.40;73.55;99245.06;6267174;22;20027;-72
2022/09/02 02:12:47;;;;;;;0.10;0.10;;;;;;;7.34;74.10;99236.09;6263622;22;20065;-72
2022/09/02 02:15:17;;;;;;;0.00;0.00;;;;;;;7.34;74.39;99255.94;6240537;22;20024;-72
2022/09/02 02:17:43;;;;;;;0.10;0.10;;;;;;;7.37;74.13;99235.56;6277954;22;20301;-72
2022/09/02 02:20:12;;;;;;;0.10;0.10;;;;;;;7.46;73.95;99230.41;6268779;22;20023;-72
2022/09/02 02:22:38;;;;;;;0.10;0.10;;;;;;;7.49;72.42;99246.19;6265118;22;20024;-72
2022/09/02 02:25:05;;;;;;;0.10;0.10;;;;;;;7.48;72.89;99239.91;6268897;22;20451;-73
2022/09/02 02:27:31;;;;;;;0.00;0.00;;;;;;;7.46;71.73;99235.84;6238471;22;20359;-73
2022/09/02 02:30:01;;;;;;;0.10;0.10;;;;;;;7.43;72.36;99242.63;6222268;22;20098;-72
2022/09/02 02:32:31;;;;;;;0.10;0.10;;;;;;;7.45;71.91;99239.66;6223137;22;20080;-72
2022/09/02 02:34:59;;;;;;;0.10;0.10;;;;;;;7.43;71.71;99237.19;6241422;22;20026;-72
2022/09/02 02:37:26;;;;;;;0.10;0.10;;;;;;;7.42;72.39;99240.19;6278375;22;20054;-73
2022/09/02 02:39:52;;;;;;;0.00;0.00;;;;;;;7.43;73.41;99242.63;6270347;22;20262;-73
2022/09/02 02:42:19;;;;;;;0.10;0.10;;;;;;;7.42;72.98;99238.28;6224572;22;20070;-73
2022/09/02 02:44:46;;;;;;;0.10;0.10;;;;;;;7.34;72.47;99246.97;6237800;22;20106;-72
2022/09/02 02:47:12;;;;;;;0.10;0.10;;;;;;;7.32;72.18;99249.94;6265021;22;20023;-73
2022/09/02 02:49:42;;;;;;;0.10;0.10;;;;;;;7.26;72.92;99244.75;6212758;22;20106;-72
2022/09/02 02:52:11;;;;;;;0.00;0.00;;;;;;;7.31;73.11;99255.63;6240753;22;20028;-73
2022/09/02 02:54:40;;;;;;;0.10;0.10;;;;;;;7.34;73.18;99253.22;6249299;22;20031;-74
2022/09/02 02:57:07;;;;;;;0.10;0.10;;;;;;;7.45;73.31;99253.25;6241660;22;20024;-71
2022/09/02 02:59:33;;;;;;;0.43;0.10;;;;;;;7.56;72.73;99257.63;6240299;22;20020;-71
2022/09/02 03:01:59;;;;;;;0.10;0.10;;;;;;;7.60;72.24;99261.47;6226416;22;20015;-70
2022/09/02 03:04:26;;;;;;;0.10;0.10;;;;;;;7.61;72.21;99267.69;6252792;22;20019;-72
2022/09/02 03:06:54;;;;;;;0.10;0.10;;;;;;;7.58;71.70;99273.69;6250652;22;20104;-71
2022/09/02 03:09:20;;;;;;;0.47;0.10;;;;;;;7.51;72.08;99269.31;6269017;22;20476;-72
2022/09/02 03:11:46;;;;;;;0.52;0.10;;;;;;;7.54;72.17;99267.94;6241757;22;20039;-73
2022/09/02 03:14:13;;;;;;;0.10;0.10;;;;;;;7.60;71.95;99268.78;6213601;22;20566;-72
2022/09/02 03:16:40;;;;;;;0.10;0.10;;;;;;;7.54;72.45;99278.03;6241211;22;20453;-72
2022/09/02 03:19:06;;;;;;;0.10;0.10;;;;;;;7.44;73.02;99279.63;6226437;22;20050;-71
2022/09/02 03:21:33;;;;;;;0.10;0.10;;;;;;;7.40;73.79;99280.41;6276701;22;20062;-73
2022/09/02 03:24:02;;;;;;;0.10;0.10;;;;;;;7.40;74.21;99286.69;6240558;22;20072;-73
2022/09/02 03:26:28;;;;;;;0.10;0.10;;;;;;;7.47;74.40;99278.28;6252317;22;20024;-73
2022/09/02 03:28:55;;;;;;;0.10;0.10;;;;;;;7.55;74.04;99282.38;6240000;22;20030;-73
2022/09/02 03:31:23;;;;;;;0.10;0.10;;;;;;;7.52;73.59;99279.13;6238501;22;20020;-73
2022/09/02 03:33:49;;;;;;;0.10;0.10;;;;;;;7.58;72.99;99266.34;6237471;22;20046;-73
2022/09/02 03:36:20;;;;;;;0.10;0.10;;;;;;;7.55;72.04;99272.31;6268251;22;20016;-69
2022/09/02 03:38:46;;;;;;;0.10;0.10;;;;;;;7.57;72.27;99275.59;6240242;22;20027;-70
2022/09/02 03:41:14;;;;;;;0.10;0.10;;;;;;;7.71;71.99;99280.50;6278253;22;20019;-69
2022/09/02 03:43:40;;;;;;;;;;;;;;;7.77;72.21;99290.34;6241690;22;20460;-69
2022/09/02 03:46:07;;;;;;;0.00;0.00;;;;;;;7.79;72.65;99285.44;6239815;22;19941;-69
2022/09/02 03:48:33;;;;;;;0.13;0.10;;;;;;;7.74;72.98;99283.53;6267165;22;20031;-70
2022/09/02 03:51:01;;;;;;;0.10;0.10;;;;;;;7.66;73.54;99289.50;6242530;22;20039;-70
2022/09/02 03:53:27;;;;;;;0.10;0.10;;;;;;;7.63;73.35;99292.72;6238169;22;20097;-69
2022/09/02 03:55:58;;;;;;;0.10;0.10;;;;;;;7.65;71.62;99288.66;6252493;22;20016;-69
2022/09/02 03:58:27;;;;;;;0.10;0.10;;;;;;;7.74;70.65;99278.06;6223624;22;20069;-70
2022/09/02 04:00:55;;;;;;;0.10;0.10;;;;;;;7.84;69.54;99298.25;6277495;22;20016;-69
2022/09/02 04:03:23;;;;;;;0.10;0.10;;;;;;;7.83;69.13;99297.41;6251523;22;20024;-70
2022/09/02 04:05:51;;;;;;;0.10;0.10;;;;;;;7.85;68.71;99314.28;6277696;22;20463;-69
2022/09/02 04:08:18;;;;;;;0.70;0.20;;;;;;;7.88;67.86;99308.34;6240963;22;20356;-69
2022/09/02 04:10:45;;;;;;;0.70;0.25;;;;;;;7.92;67.75;99305.88;6220361;22;20020;-69
2022/09/02 04:13:11;;;;;;;0.10;0.10;;;;;;;7.84;68.12;99314.59;6276420;22;20076;-70
2022/09/02 04:15:42;;;;;;;0.10;0.10;;;;;;;7.72;68.81;99303.91;6224697;22;20094;-73
2022/09/02 04:18:09;;;;;;;0.10;0.10;;;;;;;7.79;67.38;99329.78;6233859;22;20031;-72
2022/09/02 04:20:38;;;;;;;0.17;0.17;;;;;;;7.76;68.21;99318.66;6263671;22;20022;-72
2022/09/02 04:23:04;;;;;;;0.10;0.10;;;;;;;7.72;68.44;99317.53;6236036;22;20359;-72
2022/09/02 04:25:32;;;;;;;0.10;0.10;;;;;;;7.79;68.54;99310.75;6245223;22;20023;-72
2022/09/02 04:27:59;;;;;;;0.10;0.10;;;;;;;7.87;68.73;99320.28;6226440;22;20042;-71
2022/09/02 04:30:25;;;;;;;0.20;0.20;;;;;;;7.95;68.13;99329.84;6276384;22;20463;-71
2022/09/02 04:32:52;;;;;;;0.10;0.10;;;;;;;7.96;68.43;99326.06;6279238;22;20023;-71
2022/09/02 04:35:18;;;;;;;;;;;;;;;7.86;68.82;99320.56;6242377;22;20057;-72
2022/09/02 04:37:46;;;;;;;0.15;0.15;;;;;;;7.70;71.18;99316.97;6279501;22;19918;-70
2022/09/02 04:40:14;;;;;;;0.52;0.10;;;;;;;7.56;72.24;99325.63;6250734;22;20102;-69
2022/09/02 04:42:40;;;;;;;0.80;0.13;;;;;;;7.54;72.70;99319.66;6235734;22;21009;-71
2022/09/02 04:45:08;;;;;;;0.10;0.10;;;;;;;7.54;72.92;99329.72;6244744;22;20043;-70
2022/09/02 04:47:35;;;;;;;0.10;0.10;;;;;;;7.63;73.12;99330.81;6239864;22;20101;-70
2022/09/02 04:50:05;;;;;;;0.20;0.10;;;;;;;7.80;73.03;99341.50;6229343;22;20024;-69
2022/09/02 04:52:34;;;;;;;0.10;0.10;;;;;;;7.90;72.68;99329.81;6208015;22;20023;-70
2022/09/02 04:55:01;;;;;;;0.10;0.10;;;;;;;7.95;71.39;99333.38;6248920;22;20458;-70
2022/09/02 04:57:31;;;;;;;0.10;0.10;;;;;;;7.89;71.38;99323.59;6239553;22;20015;-70
2022/09/02 04:59:57;;;;;;;0.05;0.05;;;;;;;7.88;71.39;99326.56;6249777;22;20114;-70
2022/09/02 05:02:23;;;;;;;0.10;0.10;;;;;;;7.86;70.99;99339.63;6251098;22;20019;-69
2022/09/02 05:04:51;;;;;;;0.10;0.10;;;;;;;7.95;71.10;99346.16;6266869;22;20332;-70
2022/09/02 05:07:26;;;;;;;0.13;0.13;;;;;;;8.09;70.31;99343.75;6248534;22;20486;-69
2022/09/02 05:09:55;;;;;;;0.10;0.10;;;;;;;8.04;69.22;99341.84;6274540;22;20030;-70
2022/09/02 05:12:24;;;;;;;0.10;0.10;;;;;;;7.99;69.53;99338.28;6215032;22;20042;-69
2022/09/02 05:14:55;;;;;;;0.10;0.10;;;;;;;7.99;69.74;99336.41;6241432;22;20020;-69
2022/09/02 05:17:22;;;;;;;0.10;0.10;;;;;;;8.02;69.90;99359.53;6239239;22;20046;-69
2022/09/02 05:19:50;;;;;;;0.10;0.10;;;;;;;8.08;69.27;99348.38;6243767;23;20023;-70
2022/09/02 05:22:17;;;;;;;0.10;0.10;;;;;;;8.06;69.19;99350.56;6209997;23;20020;-70
2022/09/02 05:24:45;;;;;;;0.10;0.10;;;;;;;8.03;69.38;99359.25;6247318;23;20256;-70
2022/09/02 05:27:15;;;;;;;0.15;0.15;;;;;;;8.19;69.80;99356.56;6210752;23;20031;-69
2022/09/02 05:29:41;;;;;;;0.10;0.10;;;;;;;8.29;69.93;99359.31;6237679;23;20032;-70
2022/09/02 05:32:08;;;;;;;0.10;0.10;;;;;;;8.25;70.91;99366.38;6235870;22;20104;-70
2022/09/02 05:34:36;;;;;;;0.25;0.13;;;;;;;8.15;72.16;99361.75;6228349;23;20020;-71
2022/09/02 05:37:04;;;;;;;0.38;0.10;;;;;;;8.06;73.51;99377.78;6185002;23;20020;-70
2022/09/02 05:39:32;;;;;;;0.10;0.10;;;;;;;8.02;73.33;99367.69;6244919;23;20030;-71
2022/09/02 05:42:01;;;;;;;0.10;0.10;;;;;;;7.89;74.52;99385.34;6243293;22;20482;-71
2022/09/02 05:44:30;;;;;;;0.10;0.10;;;;;;;7.81;74.81;99381.25;6245100;23;20452;-71
2022/09/02 05:46:56;;;;;;;0.10;0.10;;;;;;;7.73;75.07;99379.06;6208448;23;20020;-70
2022/09/02 05:49:23;;;;;;;0.10;0.10;;;;;;;7.66;75.06;99382.03;6242419;23;20031;-70
2022/09/02 05:51:58;;;;;;;0.30;0.10;;;;;;;7.79;74.78;99376.06;6230203;22;20130;-70
2022/09/02 05:54:32;;;;;;;0.13;0.13;;;;;;;8.03;72.97;99372.88;6247502;22;20367;-70
2022/09/02 05:57:08;;;;;;;0.43;0.20;;;;;;;8.28;71.41;99381.38;6208717;23;20023;-69
2022/09/02 05:59:38;;;;;;;0.10;0.10;;;;;;;8.43;68.88;99392.28;6218697;23;20436;-70
2022/09/02 06:02:06;;;;;;;0.10;0.10;;;;;;;8.41;68.35;99380.84;6182461;23;20031;-69
2022/09/02 06:04:36;;;;;;;0.10;0.10;;;;;;;8.58;68.65;99396.16;6205913;23;20024;-69
2022/09/02 06:07:02;;;;;;;0.10;0.10;;;;;;;8.66;67.11;99401.06;6241487;22;20020;-69
2022/09/02 06:09:29;;;;;;;0.10;0.10;;;;;;;8.61;67.40;99388.25;6207754;23;20047;-69
2022/09/02 06:11:56;;;;;;;0.10;0.10;;;;;;;8.74;67.59;99403.25;6244234;22;20020;-69
2022/09/02 06:14:29;;;;;;;0.10;0.10;;;;;;;8.87;66.71;99401.06;6242862;23;20138;-70
2022/09/02 06:16:57;;;;;;;0.25;0.15;;;;;;;9.04;66.27;99408.97;6239300;22;20028;-70
2022/09/02 06:19:29;;;;;;;0.20;0.20;;;;;;;9.06;64.02;99404.88;6232622;23;20052;-70
2022/09/02 06:21:58;;;;;;;0.10;0.10;;;;;;;9.03;63.44;99410.88;6263932;22;20044;-69
2022/09/02 06:24:26;;;;;;;0.45;0.10;;;;;;;8.83;62.90;99400.78;6237411;23;20023;-69
2022/09/02 06:26:55;;;;;;;0.10;0.10;;;;;;;8.60;64.13;99423.94;6238973;22;20020;-69
2022/09/02 06:29:24;;;;;;;0.10;0.10;;;;;;;8.55;64.64;99423.97;6185626;23;20259;-70
2022/09/02 06:31:53;;;;;;;0.10;0.10;;;;;;;8.60;64.97;99422.06;6248910;22;20024;-69
2022/09/02 06:34:24;;;;;;;0.43;0.20;;;;;;;8.60;65.33;99426.69;6235524;23;20034;-70
2022/09/02 06:36:54;;;;;;;0.10;0.10;;;;;;;8.58;66.00;99421.50;6236486;22;20032;-70
2022/09/02 06:39:24;;;;;;;0.10;0.10;;;;;;;8.68;66.29;99430.78;6238210;23;20020;-69
2022/09/02 06:41:51;;;;;;;0.30;0.20;;;;;;;8.78;66.88;99438.97;6243987;22;20027;-69
2022/09/02 06:44:22;;;;;;;0.10;0.10;;;;;;;8.65;69.08;99457.50;6242803;23;20050;-69
2022/09/02 06:46:55;;;;;;;0.10;0.10;;;;;;;8.36;71.17;99444.31;6233741;22;20055;-69
2022/09/02 06:49:22;;;;;;;0.43;0.10;;;;;;;8.21;72.33;99449.72;6242612;23;20028;-69
2022/09/02 06:51:50;;;;;;;0.17;0.17;;;;;;;8.16;72.71;99447.78;6209201;23;20086;-69
2022/09/02 06:54:19;;;;;;;0.10;0.10;;;;;;;8.26;73.80;99448.94;6233234;23;20077;-70
2022/09/02 06:56:49;;;;;;;0.10;0.10;;;;;;;8.26;73.60;99457.91;6201330;23;20443;-71
2022/09/02 06:59:20;;;;;;;0.10;0.10;;;;;;;8.44;72.56;99453.88;6225951;23;20043;-71
2022/09/02 07:01:50;;;;;;;0.20;0.20;;;;;;;8.55;71.36;99465.63;6236349;22;20024;-69
2022/09/02 07:07:07;;;;;;;0.10;0.10;;;;;;;9.02;69.10;99466.53;6242560;22;20024;-69
2022/09/02 07:09:40;;;;;;;0.15;0.15;;;;;;;9.29;68.25;99473.59;6234910;23;20396;-69
2022/09/02 07:12:10;;;;;;;0.10;0.10;;;;;;;9.58;66.86;99467.53;6240354;22;20031;-69
2022/09/02 07:14:44;;;;;;;0.20;0.20;;;;;;;9.81;66.36;99473.50;6185836;23;20355;-71
2022/09/02 07:17:20;;;;;;;0.20;0.20;;;;;;;10.08;64.09;99481.31;6236981;22;20039;-70
2022/09/02 07:19:50;;;;;;;0.20;0.20;;;;;;;10.17;62.64;99478.03;6230103;23;20024;-69
2022/09/02 07:22:17;;;;;;;0.20;0.20;;;;;;;10.21;62.75;99476.34;6237484;22;20469;-70
2022/09/02 07:24:44;;;;;;;0.20;0.20;;;;;;;10.35;62.17;99493.78;6183109;23;20020;-71
2022/09/02 07:27:11;;;;;;;0.20;0.20;;;;;;;10.36;61.15;99468.09;6236501;22;20363;-69
2022/09/02 07:29:40;;;;;;;0.20;0.20;;;;;;;10.39;61.03;99472.19;6243245;23;20534;-69
2022/09/02 07:32:06;;;;;;;0.10;0.10;;;;;;;10.28;59.69;99471.38;6236198;22;20028;-69
2022/09/02 07:34:33;;;;;;;0.20;0.20;;;;;;;10.18;58.54;99482.38;6241552;23;20383;-70
2022/09/02 07:37:01;;;;;;;0.30;0.30;;;;;;;10.63;56.90;99469.59;6230688;22;20338;-70
2022/09/02 07:39:27;;;;;;;3.60;0.43;;;;;;;11.18;55.66;99476.03;6180790;23;20431;-71
2022/09/02 07:41:53;;;;;;;1.05;0.30;;;;;;;11.33;55.72;99470.44;6229967;22;20024;-70
2022/09/02 07:44:21;;;;;;;0.45;0.20;;;;;;;11.43;55.73;99483.22;6245137;22;20020;-71
2022/09/02 07:46:49;;;;;;;0.10;0.10;;;;;;;11.19;54.69;99473.00;6219106;23;20024;-71
2022/09/02 07:49:19;;;;;;;0.52;0.20;;;;;;;11.03;55.08;99479.72;6244691;23;20060;-71
2022/09/02 07:51:48;;;;;;;0.10;0.10;;;;;;;10.94;56.13;99475.97;6202608;23;20115;-69
2022/09/02 07:54:18;;;;;;;0.20;0.20;;;;;;;10.91;56.21;99480.06;6204271;23;20020;-69
2022/09/02 07:56:44;;;;;;;0.10;0.10;;;;;;;10.88;56.29;99481.44;6200624;23;20024;-70
2022/09/02 07:59:11;;;;;;;0.20;0.20;;;;;;;11.13;55.21;99478.81;6245885;23;20024;-70
2022/09/02 08:01:42;;;;;;;0.10;0.10;;;;;;;11.01;55.21;99471.81;6233215;22;20024;-69
2022/09/02 08:04:09;;;;;;;0.10;0.10;;;;;;;10.86;55.55;99488.31;6209667;23;20024;-69
2022/09/02 08:06:36;;;;;;;0.10;0.10;;;;;;;10.51;57.73;99491.00;6219089;23;20048;-70
2022/09/02 08:09:05;;;;;;;0.10;0.10;;;;;;;10.02;62.52;99506.19;6232431;23;20020;-69
2022/09/02 08:11:35;;;;;;;0.10;0.10;;;;;;;9.65;65.20;99514.50;6235294;22;20016;-69
2022/09/02 08:14:01;;;;;;;0.10;0.10;;;;;;;9.57;66.97;99512.31;6243009;22;20056;-71
2022/09/02 08:16:28;;;;;;;0.15;0.15;;;;;;;9.54;66.64;99517.50;6246834;22;20026;-71
2022/09/02 08:18:54;;;;;;;0.20;0.20;;;;;;;10.31;62.65;99506.38;6237990;23;20028;-71
2022/09/02 08:21:20;;;;;;;0.20;0.20;;;;;;;11.15;60.52;99504.78;6232159;22;20031;-71
2022/09/02 08:23:48;;;;;;;0.40;0.30;;;;;;;11.76;57.72;99513.53;6233922;23;20026;-70
2022/09/02 08:26:14;;;;;;;0.20;0.20;;;;;;;12.28;55.42;99517.66;6241098;22;20467;-70
2022/09/02 08:28:41;;;;;;;0.13;0.13;;;;;;;13.09;53.78;99527.78;6244110;23;20450;-70
2022/09/02 08:31:07;;;;;;;0.30;0.30;;;;;;;13.29;51.28;99510.16;6239233;22;20366;-71
2022/09/02 08:33:34;;;;;;;0.30;0.30;;;;;;;14.08;48.60;99532.41;6235495;23;20024;-71
2022/09/02 08:36:02;;;;;;;0.20;0.20;;;;;;;13.60;49.64;99514.38;6233820;22;20016;-71
2022/09/02 08:38:28;;;;;;;0.20;0.20;;;;;;;13.17;50.94;99527.13;6231770;23;20028;-71
2022/09/02 08:40:54;;;;;;;0.82;0.30;;;;;;;12.73;51.32;99540.13;6234451;22;20411;-71
2022/09/02 08:43:30;;;;;;;1.23;0.38;;;;;;;11.91;53.21;99533.66;6234062;22;20028;-71
2022/09/02 08:46:03;;;;;;;1.38;0.40;;;;;;;11.56;54.60;99530.19;6237800;22;20043;-72
2022/09/02 08:48:37;;;;;;;0.38;0.30;;;;;;;11.66;54.39;99529.28;6235854;23;20035;-71
2022/09/02 08:51:08;;;;;;;1.20;0.50;;;;;;;13.04;51.30;99538.84;6235094;22;20020;-70
2022/09/02 08:53:45;;;;;;;0.38;0.38;;;;;;;13.49;50.10;99543.91;6242973;23;20026;-69
2022/09/02 08:56:16;;;;;;;0.13;0.13;;;;;;;13.06;50.67;99536.63;6246262;22;20114;-69
2022/09/02 08:58:45;;;;;;;0.20;0.20;;;;;;;12.39;51.78;99541.09;6242586;23;20020;-70
2022/09/02 09:01:23;;;;;;;0.20;0.20;;;;;;;11.76;53.94;99542.84;6238304;22;20062;-70
2022/09/02 09:03:59;;;;;;;;;;;;;;;12.60;52.95;99558.09;6239920;23;20420;-71
2022/09/02 09:06:34;;;;;;;0.50;0.50;;;;;;;13.49;49.79;99543.13;6209050;23;20393;-71
2022/09/02 09:09:10;;;;;;;0.20;0.20;;;;;;;13.61;49.12;99546.22;6243378;22;20028;-71
2022/09/02 09:11:44;;;;;;;0.20;0.20;;;;;;;12.93;49.74;99556.56;6236105;22;20078;-72
2022/09/02 09:14:24;;;;;;;0.70;0.30;;;;;;;12.39;52.53;99543.03;6236761;23;20027;-72
2022/09/02 09:16:57;;;;;;;0.40;0.30;;;;;;;12.39;53.13;99564.97;6233634;22;20115;-71
2022/09/02 09:19:34;;;;;;;0.75;0.35;;;;;;;12.44;52.05;99560.22;6252597;22;20098;-71
2022/09/02 09:22:02;;;;;;;0.77;0.30;;;;;;;12.57;51.06;99555.16;6265189;22;20073;-72
2022/09/02 09:24:35;;;;;;;0.22;0.20;;;;;;;12.38;52.11;99549.63;6239686;22;20047;-71
2022/09/02 09:27:05;;;;;;;0.20;0.20;;;;;;;12.30;51.23;99545.59;6211639;22;20087;-72
2022/09/02 09:29:33;;;;;;;0.22;0.22;;;;;;;11.96;52.03;99571.97;6265805;22;20028;-71
2022/09/02 09:32:01;;;;;;;;;;;;;;;11.83;52.48;99572.63;6265031;22;20114;-72
2022/09/02 09:34:56;;;;;;;0.20;0.20;;;;;;;11.91;52.44;99574.75;6277674;22;19926;-72
2022/09/02 09:37:28;;;;;;;0.20;0.20;;;;;;;12.43;51.60;99569.56;6235201;22;20034;-71
2022/09/02 09:39:54;;;;;;;0.20;0.20;;;;;;;12.35;50.43;99578.44;6257942;22;20031;-72
2022/09/02 09:42:30;;;;;;;0.20;0.20;;;;;;;12.16;50.83;99587.41;6265168;22;20015;-71
2022/09/02 09:44:56;;;;;;;0.20;0.20;;;;;;;11.87;51.64;99592.91;6237150;22;20020;-71
2022/09/02 09:47:25;;;;;;;0.30;0.30;;;;;;;11.70;52.66;99602.31;6246498;22;20024;-72
2022/09/02 09:49:53;;;;;;;0.63;0.20;;;;;;;11.72;53.73;99591.94;6263177;22;20023;-72
2022/09/02 09:52:24;;;;;;;0.20;0.20;;;;;;;11.99;53.78;99604.25;6275943;22;20077;-72
2022/09/02 09:55:10;;;;;;;1.02;0.60;;;;;;;12.07;53.69;99615.75;6261138;22;20023;-72
2022/09/02 09:57:37;;;;;;;0.80;0.80;;;;;;;13.46;49.39;99603.03;6234369;22;20015;-70
2022/09/02 10:00:13;;;;;;;1.10;0.73;;;;;;;14.80;45.42;99601.69;6218036;22;20024;-70
2022/09/02 10:02:48;;;;;;;0.80;0.80;;;;;;;15.94;43.81;99621.09;6251691;22;20607;-70
2022/09/02 10:05:30;;;;;;;0.80;0.80;;;;;;;17.00;40.00;99610.47;6278235;22;20341;-70
2022/09/02 10:07:58;;;;;;;0.85;0.50;;;;;;;16.85;40.21;99606.19;6271071;22;20023;-72
2022/09/02 10:10:26;;;;;;;0.90;0.90;;;;;;;16.88;40.34;99613.81;6278804;22;20034;-72
2022/09/02 10:12:56;;;;;;;1.00;1.00;;;;;;;16.75;39.81;99604.56;6240534;22;20024;-72
2022/09/02 10:15:30;;;;;;;0.68;0.68;;;;;;;16.64;39.43;99608.75;6240971;22;20020;-72
2022/09/02 10:18:12;;;;;;;0.30;0.30;;;;;;;15.48;41.69;99589.97;6252562;22;20102;-72
2022/09/02 10:20:49;;;;;;;0.35;0.20;;;;;;;14.23;43.88;99618.47;6244326;22;20030;-72
2022/09/02 10:23:32;;;;;;;0.13;0.13;;;;;;;13.15;48.61;99628.16;6273647;22;20012;-71
2022/09/02 10:26:11;;;;;;;0.20;0.20;;;;;;;12.48;50.78;99609.78;6194349;22;20020;-72
2022/09/02 10:28:59;;;;;;;0.20;0.20;;;;;;;11.99;52.87;99615.22;6236365;22;20015;-71
2022/09/02 10:31:28;;;;;;;;;;;;;;;11.64;55.69;99658.25;6267362;22;20160;-70
2022/09/02 10:34:10;;;;;;;0.22;0.22;;;;;;;12.33;52.66;99641.78;6277506;22;19919;-70
2022/09/02 10:36:51;;;;;;;0.90;0.90;;;;;;;14.84;47.68;99640.41;6278111;22;20378;-70
2022/09/02 10:39:25;;;;;;;0.30;0.30;;;;;;;17.33;41.97;99629.38;6244955;22;20577;-71
2022/09/02 10:41:57;;;;;;;0.30;0.30;;;;;;;18.40;38.18;99628.84;6268180;22;20530;-70
2022/09/02 10:44:29;;;;;;;0.80;0.80;;;;;;;17.36;38.63;99638.94;6218257;22;20015;-71
2022/09/02 10:47:03;;;;;;;0.57;0.30;;;;;;;16.58;39.36;99630.16;6280438;22;20024;-70
2022/09/02 10:49:56;;;;;;;0.30;0.30;;;;;;;15.11;43.07;99636.00;6212982;22;20027;-70
2022/09/02 10:52:37;;;;;;;1.30;1.10;;;;;;;16.15;41.04;99670.22;6239823;22;20030;-70
2022/09/02 10:55:15;;;;;;;1.10;1.10;;;;;;;17.67;38.27;99660.06;6236298;22;20510;-70
2022/09/02 10:57:46;;;;;;;0.95;0.95;;;;;;;17.75;37.87;99667.56;6276758;22;20074;-70
2022/09/02 11:00:16;;;;;;;0.68;0.68;;;;;;;17.12;37.89;99660.34;6252257;22;20102;-70
2022/09/02 11:02:47;;;;;;;1.05;1.05;;;;;;;17.19;37.45;99659.09;6268789;22;20020;-70
2022/09/02 11:05:18;;;;;;;1.20;1.20;;;;;;;17.50;37.49;99666.44;6268998;22;20019;-71
2022/09/02 11:07:51;;;;;;;1.55;1.23;;;;;;;17.61;36.94;99672.44;6267602;22;20042;-71
2022/09/02 11:10:22;;;;;;;1.20;1.20;;;;;;;17.47;37.12;99667.88;6217997;22;20026;-71
2022/09/02 11:12:55;;;;;;;1.20;1.20;;;;;;;17.86;37.03;99690.94;6277618;22;20034;-71
2022/09/02 11:15:33;;;;;;;1.30;1.20;;;;;;;17.81;37.01;99671.75;6251767;22;20064;-71
2022/09/02 11:18:09;;;;;;;1.63;1.23;;;;;;;17.76;37.31;99684.94;6262459;22;20030;-73
2022/09/02 11:20:45;;;;;;;1.10;1.10;;;;;;;17.81;36.94;99682.81;6276092;22;20119;-72
2022/09/02 11:23:19;;;;;;;1.30;1.20;;;;;;;17.61;37.04;99692.59;6268049;22;20047;-71
2022/09/02 11:25:51;;;;;;;1.30;1.20;;;;;;;18.02;36.52;99686.88;6265879;22;20026;-72
2022/09/02 11:28:29;;;;;;;1.15;1.15;;;;;;;18.35;36.14;99687.16;6277504;22;20035;-72
2022/09/02 11:31:02;;;;;;;0.30;0.30;;;;;;;18.44;36.35;99684.38;6241558;22;20455;-73
2022/09/02 11:33:40;;;;;;;1.30;1.20;;;;;;;17.92;36.47;99691.59;6275125;22;20043;-72
2022/09/02 11:36:08;;;;;;;1.58;1.10;;;;;;;17.89;37.72;99711.63;6246561;22;20042;-73
2022/09/02 11:38:38;;;;;;;1.42;1.20;;;;;;;18.39;35.82;99707.50;6274917;22;20026;-72
2022/09/02 11:41:28;;;;;;;1.30;1.20;;;;;;;18.34;35.41;99698.56;6253840;22;20034;-72
2022/09/02 11:44:43;;;;;;;1.40;1.30;;;;;;;17.29;36.65;99680.84;6266946;22;20031;-72
2022/09/02 11:47:21;;;;;;;;;;;;;;;18.39;34.65;99690.88;6241706;22;20026;-72
2022/09/02 11:50:03;;;;;;;1.50;1.30;;;;;;;17.79;36.04;99710.00;6213398;22;19919;-71
2022/09/02 11:52:43;;;;;;;0.70;0.70;;;;;;;18.56;34.85;99687.22;6276250;22;20020;-70
2022/09/02 11:55:16;;;;;;;1.38;1.27;;;;;;;19.23;34.75;99699.81;6276651;22;20023;-71
2022/09/02 11:57:42;;;;;;;0.40;0.40;;;;;;;18.02;36.07;99681.34;6249184;22;20019;-70